Stonington, Colorado
Current Conditions -  °F | °C
As of 7:53 PM on Sunday 21 Dec 2014 (Local Time) from KGUY Reporting Station
Clear Clear  
Wind Chill: 36°   Ceiling: Unl
Heat Index: 40°   Visibility: 10mi
Dew Point: 27°   Wind: 6mph
Humidity: 60%   Direction: 230°SW
Pressure: 29.54"   Gusts: NA
Location:  37.2687°N, 102.211°W
Report Text: KGUY 220253Z AUTO 23005KT 10SM CLR 04/M03 A2954 RMK AO2 SLP004 T00441028 55002
Loading
Personal Weather Stations






























Interactive Weather Map New forecast layout! Learn more

10-Day Weather Forecast

Advertisements
Track Severe Weather on mobile